Time;durP1;ratioP1;P1;durP2;ratioP2;P2;SDS_P1;SDS_P2;PMS_P1;PMS_P2;Temp;Humidity;BMP_temperature;BMP_pressure;BME280_temperature;BME280_humidity;BME280_pressure;Samples;Min_cycle;Max_cycle;Signal;HPM_P1;HPM_P2
2021/07/22 00:00:08;;;;;;;0.40;0.00;;;;;;;20.29;58.80;100837.17;126191;1096;114570;-61
2021/07/22 00:02:35;;;;;;;0.40;0.07;;;;;;;20.29;59.19;100836.31;126554;1095;102943;-61
2021/07/22 00:05:05;;;;;;;0.40;0.00;;;;;;;20.25;59.14;100851.84;125947;1094;114699;-62
2021/07/22 00:07:33;;;;;;;0.40;0.00;;;;;;;20.26;58.75;100844.59;126088;1096;103086;-61
2021/07/22 00:10:00;;;;;;;0.40;0.00;;;;;;;20.30;58.52;100852.45;126066;1095;103054;-59
2021/07/22 00:12:27;;;;;;;0.40;0.10;;;;;;;20.30;58.67;100847.04;125983;1095;114019;-60
2021/07/22 00:14:54;;;;;;;0.40;0.00;;;;;;;20.40;58.42;100854.60;126151;1096;102995;-59
2021/07/22 00:17:21;;;;;;;0.40;0.00;;;;;;;20.42;58.63;100849.95;126006;1096;114360;-59
2021/07/22 00:19:49;;;;;;;0.40;0.10;;;;;;;20.36;58.66;100852.06;126118;1096;102908;-59
2021/07/22 00:22:16;;;;;;;0.40;0.00;;;;;;;20.30;58.73;100841.63;126015;1096;114825;-60
2021/07/22 00:24:44;;;;;;;0.40;0.08;;;;;;;20.31;58.67;100843.38;126036;1096;103135;-60
2021/07/22 00:27:15;;;;;;;0.40;0.00;;;;;;;20.24;58.93;100846.53;126137;1094;102987;-60
2021/07/22 00:29:44;;;;;;;0.40;0.10;;;;;;;20.26;58.77;100848.19;125929;1095;114280;-62
2021/07/22 00:32:11;;;;;;;0.40;0.00;;;;;;;20.20;58.87;100848.55;126073;1096;102900;-62
2021/07/22 00:34:39;;;;;;;0.40;0.10;;;;;;;20.20;58.60;100854.81;126033;1096;113657;-62
2021/07/22 00:37:06;;;;;;;0.40;0.00;;;;;;;20.21;58.59;100845.73;126160;1096;102878;-62
2021/07/22 00:39:36;;;;;;;0.40;0.00;;;;;;;20.22;59.32;100854.75;125980;1095;103052;-62
2021/07/22 00:42:06;;;;;;;0.40;0.00;;;;;;;20.15;58.83;100862.35;126038;1095;114244;-62
2021/07/22 00:44:33;;;;;;;0.40;0.10;;;;;;;20.10;59.42;100860.86;126167;1096;103000;-67
2021/07/22 00:47:01;;;;;;;0.40;0.10;;;;;;;20.07;59.02;100863.75;126151;1096;114103;-61
2021/07/22 00:49:28;;;;;;;0.40;0.00;;;;;;;20.10;59.28;100856.34;126167;1095;102897;-61
2021/07/22 00:51:55;;;;;;;0.40;0.00;;;;;;;20.12;59.11;100862.52;126044;1096;103252;-61
2021/07/22 00:54:22;;;;;;;0.40;0.10;;;;;;;20.10;59.17;100869.86;126005;1095;114176;-61
2021/07/22 00:56:49;;;;;;;0.40;0.10;;;;;;;20.07;59.14;100861.05;126166;1095;102887;-60
2021/07/22 00:59:16;;;;;;;0.40;0.00;;;;;;;20.07;59.34;100856.50;126001;1096;114154;-61
2021/07/22 01:01:43;;;;;;;0.40;0.00;;;;;;;20.08;58.90;100860.95;126105;1095;102920;-60
2021/07/22 01:04:11;;;;;;;0.40;0.10;;;;;;;20.10;58.98;100860.86;126009;1096;114544;-61
2021/07/22 01:06:38;;;;;;;0.40;0.00;;;;;;;20.10;59.35;100863.56;126091;1095;102863;-61
2021/07/22 01:09:05;;;;;;;0.40;0.05;;;;;;;19.97;59.38;100855.33;126176;1095;102882;-61
2021/07/22 01:11:32;;;;;;;0.40;0.10;;;;;;;19.95;59.76;100862.64;126033;1096;114769;-60
2021/07/22 01:14:00;;;;;;;0.40;0.00;;;;;;;19.94;59.35;100860.89;126009;1095;102990;-60
2021/07/22 01:16:27;;;;;;;0.40;0.00;;;;;;;19.94;59.39;100858.18;126071;1096;113284;-60
2021/07/22 01:18:54;;;;;;;0.40;0.10;;;;;;;19.86;59.91;100862.22;126184;1095;102917;-60
2021/07/22 01:21:24;;;;;;;0.40;0.10;;;;;;;19.83;60.01;100858.81;126166;1096;103498;-59
2021/07/22 01:23:51;;;;;;;0.40;0.00;;;;;;;19.95;59.89;100858.09;126076;1096;114208;-60
2021/07/22 01:26:19;;;;;;;0.40;0.00;;;;;;;19.92;59.68;100860.98;126124;1096;102926;-60
2021/07/22 01:28:47;;;;;;;0.40;0.00;;;;;;;19.84;59.90;100860.56;126118;1096;114368;-59
2021/07/22 01:31:14;;;;;;;0.40;0.10;;;;;;;19.78;60.13;100859.06;126160;1095;102920;-59
2021/07/22 01:33:42;;;;;;;0.40;0.07;;;;;;;19.78;60.46;100859.06;126172;1095;102914;-60
2021/07/22 01:36:09;;;;;;;0.40;0.00;;;;;;;19.80;60.44;100857.13;126082;1096;114221;-60
2021/07/22 01:38:36;;;;;;;0.40;0.00;;;;;;;19.80;60.45;100856.27;126184;1096;103041;-60
2021/07/22 01:41:04;;;;;;;0.40;0.00;;;;;;;19.75;60.28;100858.36;126016;1096;114156;-59
2021/07/22 01:43:31;;;;;;;0.40;0.00;;;;;;;19.62;60.88;100860.88;126098;1096;102919;-60
2021/07/22 01:45:58;;;;;;;0.40;0.00;;;;;;;19.54;61.12;100854.09;126539;1096;102921;-59
2021/07/22 01:48:26;;;;;;;0.40;0.00;;;;;;;19.53;61.05;100856.89;126025;1096;114071;-60
2021/07/22 01:50:53;;;;;;;0.40;0.00;;;;;;;19.50;61.07;100859.73;126087;1095;102948;-60
2021/07/22 01:53:20;;;;;;;0.40;0.00;;;;;;;19.41;61.23;100865.66;126004;1095;114155;-60
2021/07/22 01:55:47;;;;;;;0.40;0.00;;;;;;;19.38;61.25;100861.33;126134;1095;102993;-60
2021/07/22 01:58:14;;;;;;;0.40;0.00;;;;;;;19.40;61.36;100863.94;126082;1095;114391;-60
2021/07/22 02:00:41;;;;;;;0.40;0.10;;;;;;;19.38;61.50;100864.89;126032;1096;102987;-60
2021/07/22 02:03:09;;;;;;;0.40;0.10;;;;;;;19.36;61.52;100860.53;126087;1095;102898;-60
2021/07/22 02:05:36;;;;;;;0.40;0.00;;;;;;;19.27;61.73;100861.90;125836;1095;114686;-60
2021/07/22 02:08:03;;;;;;;0.40;0.00;;;;;;;19.30;61.74;100859.05;126014;1096;102991;-60
2021/07/22 02:10:30;;;;;;;0.40;0.00;;;;;;;19.31;61.78;100859.91;125773;1095;114668;-60
2021/07/22 02:12:57;;;;;;;0.40;0.05;;;;;;;19.31;61.55;100860.80;125947;1096;102903;-60
2021/07/22 02:15:24;;;;;;;0.40;0.10;;;;;;;19.27;61.68;100861.90;125989;1095;102990;-60
2021/07/22 02:17:52;;;;;;;0.40;0.10;;;;;;;19.27;61.69;100855.64;125894;1095;114289;-59
2021/07/22 02:20:19;;;;;;;0.40;0.10;;;;;;;19.31;61.46;100858.10;126057;1096;102948;-60
2021/07/22 02:22:46;;;;;;;0.40;0.08;;;;;;;19.35;61.31;100865.07;125998;1095;113333;-60
2021/07/22 02:25:13;;;;;;;0.40;0.10;;;;;;;19.40;61.28;100859.39;125998;1095;103064;-60
2021/07/22 02:27:40;;;;;;;0.40;0.00;;;;;;;19.33;61.64;100860.70;126062;1096;103039;-61
2021/07/22 02:30:09;;;;;;;0.40;0.10;;;;;;;19.32;61.76;100867.06;125921;1096;114179;-60
2021/07/22 02:32:36;;;;;;;0.40;0.10;;;;;;;19.29;61.74;100862.70;126480;1097;103003;-60
2021/07/22 02:35:04;;;;;;;0.40;0.00;;;;;;;19.29;61.55;100864.54;125874;1095;114221;-61
2021/07/22 02:37:31;;;;;;;0.40;0.00;;;;;;;19.24;61.43;100869.32;126201;1095;102907;-61
2021/07/22 02:39:58;;;;;;;0.40;0.03;;;;;;;19.25;61.79;100866.53;125962;1097;102980;-60
2021/07/22 02:42:25;;;;;;;0.40;0.00;;;;;;;19.30;61.66;100869.85;125944;1096;114200;-60
2021/07/22 02:44:53;;;;;;;0.40;0.00;;;;;;;19.27;61.71;100875.40;125990;1095;103084;-60
2021/07/22 02:47:21;;;;;;;0.40;0.00;;;;;;;19.23;61.66;100870.27;125860;1095;114186;-60
2021/07/22 02:49:48;;;;;;;0.40;0.10;;;;;;;19.15;61.76;100871.58;126023;1096;102891;-60
2021/07/22 02:52:15;;;;;;;0.40;0.07;;;;;;;19.14;62.00;100877.92;125937;1097;114465;-60
2021/07/22 02:54:42;;;;;;;0.40;0.10;;;;;;;19.15;61.91;100868.88;126014;1095;103044;-60
2021/07/22 02:57:09;;;;;;;0.40;0.00;;;;;;;19.15;62.01;100876.98;126073;1097;102913;-60
2021/07/22 02:59:36;;;;;;;0.40;0.00;;;;;;;19.14;61.98;100868.94;125897;1096;114323;-60
2021/07/22 03:02:03;;;;;;;0.40;0.10;;;;;;;19.12;62.00;100874.42;126037;1096;102938;-60
2021/07/22 03:04:31;;;;;;;0.40;0.10;;;;;;;19.16;61.76;100869.73;126986;1094;114360;-60
2021/07/22 03:06:58;;;;;;;0.40;0.00;;;;;;;19.24;61.54;100878.28;126002;1094;103061;-60
2021/07/22 03:09:25;;;;;;;0.40;0.00;;;;;;;19.19;62.04;100858.75;126035;1095;103019;-60
2021/07/22 03:11:52;;;;;;;0.40;0.00;;;;;;;19.17;62.12;100884.98;126056;1095;114198;-60
2021/07/22 03:14:19;;;;;;;0.40;0.10;;;;;;;19.15;61.80;100887.78;126127;1095;102901;-60
2021/07/22 03:16:47;;;;;;;0.40;0.00;;;;;;;19.24;61.64;100882.82;126069;1095;114044;-60
2021/07/22 03:19:14;;;;;;;0.40;0.00;;;;;;;19.25;61.57;100882.73;126131;1095;103039;-61
2021/07/22 03:21:41;;;;;;;0.40;0.00;;;;;;;19.27;61.68;100882.64;126000;1096;102887;-60
2021/07/22 03:24:08;;;;;;;0.40;0.00;;;;;;;19.30;61.39;100886.05;126009;1096;113161;-61
2021/07/22 03:26:35;;;;;;;0.40;0.00;;;;;;;19.39;61.49;100884.66;126176;1095;103067;-60
2021/07/22 03:29:03;;;;;;;0.40;0.00;;;;;;;19.44;61.41;100885.27;125908;1096;114224;-60
2021/07/22 03:31:30;;;;;;;0.40;0.00;;;;;;;19.42;61.44;100887.20;126033;1095;103396;-61
2021/07/22 03:34:01;;;;;;;0.40;0.10;;;;;;;19.41;61.67;100889.97;126072;1095;102971;-61
2021/07/22 03:36:28;;;;;;;0.40;0.10;;;;;;;19.36;61.79;100895.64;125850;1095;114230;-60
2021/07/22 03:38:55;;;;;;;0.40;0.10;;;;;;;19.39;61.72;100892.76;126139;1095;102892;-61
2021/07/22 03:41:24;;;;;;;0.40;0.00;;;;;;;19.35;62.02;100899.29;126063;1096;114342;-60
2021/07/22 03:43:52;;;;;;;0.40;0.00;;;;;;;19.33;62.01;100896.68;126083;1095;103035;-60
2021/07/22 03:46:19;;;;;;;0.40;0.00;;;;;;;19.40;62.14;100901.75;126064;1095;114016;-60
2021/07/22 03:48:46;;;;;;;0.40;0.00;;;;;;;19.46;62.01;100898.69;126132;1095;102984;-61
2021/07/22 03:51:13;;;;;;;0.40;0.00;;;;;;;19.51;62.25;100900.20;126106;1096;102923;-60
2021/07/22 03:53:40;;;;;;;0.40;0.00;;;;;;;19.58;62.22;100902.54;125915;1095;114501;-60
2021/07/22 03:56:07;;;;;;;0.40;0.00;;;;;;;19.58;62.12;100902.54;126118;1095;102988;-60
2021/07/22 03:58:34;;;;;;;0.40;0.00;;;;;;;19.49;62.23;100902.11;125978;1095;114343;-60
2021/07/22 04:01:01;;;;;;;0.40;0.00;;;;;;;19.54;62.48;100902.72;126223;1095;102987;-60
2021/07/22 04:03:35;;;;;;;0.40;0.00;;;;;;;19.61;62.03;100903.25;126129;1095;102890;-60
2021/07/22 04:06:03;;;;;;;0.40;0.10;;;;;;;19.71;62.15;100906.30;125940;1096;114511;-60
2021/07/22 04:08:30;;;;;;;0.40;0.00;;;;;;;19.79;62.30;100898.65;126081;1096;103200;-60
2021/07/22 04:11:01;;;;;;;0.40;0.00;;;;;;;19.83;62.29;100902.05;125987;1095;114338;-60
2021/07/22 04:13:28;;;;;;;0.40;0.00;;;;;;;19.88;61.95;100897.27;126128;1095;103174;-60
2021/07/22 04:15:55;;;;;;;0.40;0.00;;;;;;;19.98;61.87;100900.30;126150;1095;102916;-60
2021/07/22 04:18:22;;;;;;;0.40;0.00;;;;;;;19.99;61.94;100900.23;126057;1096;114554;-61
2021/07/22 04:20:50;;;;;;;0.40;0.10;;;;;;;19.98;62.21;100897.59;126140;1096;102953;-60
2021/07/22 04:23:17;;;;;;;0.40;0.00;;;;;;;20.08;62.22;100896.11;125994;1095;114134;-60
2021/07/22 04:25:46;;;;;;;0.40;0.00;;;;;;;20.17;62.01;100894.71;126157;1094;102890;-60
2021/07/22 04:28:13;;;;;;;0.40;0.00;;;;;;;20.17;61.80;100892.86;126066;1096;114369;-60
2021/07/22 04:30:40;;;;;;;0.40;0.00;;;;;;;20.07;61.99;100897.06;126971;1095;101439;-61
2021/07/22 04:33:08;;;;;;;0.40;0.10;;;;;;;20.06;62.13;100903.45;126030;1095;103001;-61
2021/07/22 04:35:35;;;;;;;0.40;0.00;;;;;;;20.11;62.30;100901.33;126023;1095;114535;-61
2021/07/22 04:38:04;;;;;;;0.40;0.00;;;;;;;20.11;62.31;100909.44;126130;1094;103025;-61
2021/07/22 04:40:31;;;;;;;0.40;0.00;;;;;;;20.12;62.25;100905.78;126028;1095;143085;-61
2021/07/22 04:43:01;;;;;;;0.40;0.00;;;;;;;20.14;62.14;100911.98;126123;1095;102958;-61
2021/07/22 04:45:28;;;;;;;0.40;0.00;;;;;;;20.24;62.15;100914.16;126105;1095;103053;-61
2021/07/22 04:47:55;;;;;;;0.40;0.00;;;;;;;20.29;62.02;100906.64;126034;1096;114238;-61
2021/07/22 04:50:23;;;;;;;0.40;0.00;;;;;;;20.39;61.84;100910.52;126166;1095;103190;-61
2021/07/22 04:52:50;;;;;;;0.40;0.00;;;;;;;20.38;61.65;100915.08;125989;1095;114456;-61
2021/07/22 04:55:17;;;;;;;0.40;0.00;;;;;;;20.40;61.82;100914.98;126101;1095;103029;-61
2021/07/22 04:57:45;;;;;;;0.40;0.00;;;;;;;20.51;61.79;100914.33;126185;1095;103106;-61
2021/07/22 05:00:12;;;;;;;0.40;0.00;;;;;;;20.60;61.61;100913.78;125999;1096;114260;-61
2021/07/22 05:02:42;;;;;;;0.40;0.05;;;;;;;20.64;61.19;100915.34;126120;1096;102972;-61
2021/07/22 05:05:10;;;;;;;0.40;0.00;;;;;;;20.67;61.30;100914.28;126523;1096;114419;-61
2021/07/22 05:07:38;;;;;;;0.40;0.05;;;;;;;20.70;60.88;100916.86;126122;1095;103325;-61
2021/07/22 05:10:07;;;;;;;0.40;0.00;;;;;;;20.70;61.02;100911.45;126148;1096;103005;-61
2021/07/22 05:12:34;;;;;;;0.40;0.00;;;;;;;20.81;61.01;100910.78;126234;1096;113887;-61
2021/07/22 05:15:01;;;;;;;0.40;0.10;;;;;;;20.86;60.92;100909.53;126021;1096;103037;-59
2021/07/22 05:17:28;;;;;;;0.40;0.00;;;;;;;20.87;60.57;100910.39;126052;1095;114189;-59
2021/07/22 05:19:56;;;;;;;0.40;0.00;;;;;;;20.99;60.63;100917.78;126221;1096;102914;-60
2021/07/22 05:22:23;;;;;;;0.40;0.00;;;;;;;20.99;60.40;100914.18;125939;1095;113743;-60
2021/07/22 05:24:51;;;;;;;0.40;0.00;;;;;;;21.01;60.13;100914.97;126122;1096;102984;-59
2021/07/22 05:27:19;;;;;;;0.40;0.00;;;;;;;20.95;60.46;100908.11;126192;1095;102891;-59
2021/07/22 05:29:46;;;;;;;0.40;0.00;;;;;;;20.98;60.05;100915.14;126022;1096;114379;-59
2021/07/22 05:32:14;;;;;;;0.40;0.00;;;;;;;21.10;60.03;100914.40;126133;1095;102991;-59
2021/07/22 05:34:41;;;;;;;0.40;0.00;;;;;;;21.18;59.72;100917.49;126055;1094;114622;-59
2021/07/22 05:37:10;;;;;;;0.40;0.00;;;;;;;21.12;59.24;100917.00;126118;1095;102962;-59
2021/07/22 05:39:38;;;;;;;0.40;0.00;;;;;;;21.02;59.49;100912.16;126137;1096;103386;-59
2021/07/22 05:42:05;;;;;;;0.40;0.00;;;;;;;20.99;59.70;100914.18;126033;1095;113122;-59
2021/07/22 05:44:32;;;;;;;0.40;0.00;;;;;;;21.03;59.58;100921.14;126205;1095;102913;-59
2021/07/22 05:46:59;;;;;;;0.40;0.00;;;;;;;21.15;59.15;100917.70;126070;1096;114281;-59
2021/07/22 05:49:27;;;;;;;0.40;0.00;;;;;;;21.11;59.08;100915.25;126169;1095;102996;-59
2021/07/22 05:51:54;;;;;;;0.40;0.00;;;;;;;21.10;59.25;100913.50;126114;1095;103303;-59
2021/07/22 05:54:22;;;;;;;0.40;0.00;;;;;;;21.12;59.41;100915.16;126036;1095;114180;-59
2021/07/22 05:56:49;;;;;;;0.40;0.10;;;;;;;21.17;59.56;100915.74;126181;1095;103036;-59
2021/07/22 05:59:16;;;;;;;0.40;0.00;;;;;;;21.28;58.95;100922.33;126103;1095;114625;-59
2021/07/22 06:01:43;;;;;;;0.40;0.00;;;;;;;21.42;59.04;100922.34;126167;1095;104977;-59
2021/07/22 06:04:10;;;;;;;0.40;0.00;;;;;;;21.50;58.55;100917.29;126100;1096;102891;-59
2021/07/22 06:06:42;;;;;;;0.40;0.00;;;;;;;21.52;58.45;100911.77;126113;1095;114596;-59
2021/07/22 06:09:10;;;;;;;0.40;0.00;;;;;;;21.51;59.10;100910.91;126130;1096;103058;-59
2021/07/22 06:11:37;;;;;;;0.40;0.00;;;;;;;21.59;58.42;100914.98;126182;1096;114225;-59
2021/07/22 06:14:05;;;;;;;0.40;0.10;;;;;;;21.64;57.92;100915.56;126104;1095;103342;-59
2021/07/22 06:16:32;;;;;;;0.40;0.00;;;;;;;21.70;58.12;100913.32;126044;1095;114397;-59
2021/07/22 06:19:00;;;;;;;0.40;0.00;;;;;;;21.76;57.88;100916.61;126143;1096;102884;-59
2021/07/22 06:21:27;;;;;;;0.40;0.00;;;;;;;21.85;57.93;100921.43;126129;1095;103084;-59
2021/07/22 06:23:54;;;;;;;0.40;0.00;;;;;;;21.86;57.14;100913.19;126064;1095;114236;-59
2021/07/22 06:26:21;;;;;;;0.40;0.00;;;;;;;21.95;57.65;100911.73;126132;1096;102967;-59
2021/07/22 06:28:48;;;;;;;0.40;0.00;;;;;;;22.09;57.37;100918.08;126036;1095;114396;-59
2021/07/22 06:31:15;;;;;;;0.40;0.00;;;;;;;22.16;57.19;100917.54;125984;1096;102924;-59
2021/07/22 06:33:42;;;;;;;0.40;0.07;;;;;;;22.21;56.13;100912.68;126124;1095;102991;-60
2021/07/22 06:36:09;;;;;;;0.40;0.00;;;;;;;22.39;55.88;100912.44;126116;1095;114365;-60
2021/07/22 06:38:37;;;;;;;0.40;0.00;;;;;;;22.44;55.54;100917.57;126144;1096;103138;-59
2021/07/22 06:41:04;;;;;;;0.40;0.00;;;;;;;22.47;55.28;100920.06;126018;1095;114209;-60
2021/07/22 06:43:32;;;;;;;0.40;0.00;;;;;;;22.48;55.13;100924.52;126103;1095;103075;-59
2021/07/22 06:45:59;;;;;;;0.40;0.00;;;;;;;22.56;54.80;100924.01;126113;1095;102909;-59
2021/07/22 06:48:26;;;;;;;0.40;0.00;;;;;;;22.64;54.87;100921.63;126011;1095;114197;-60
2021/07/22 06:50:54;;;;;;;0.40;0.00;;;;;;;22.74;55.01;100922.74;126163;1095;102993;-59
2021/07/22 06:53:21;;;;;;;0.40;0.00;;;;;;;22.86;54.01;100915.59;126007;1095;114400;-60
2021/07/22 06:55:48;;;;;;;0.40;0.00;;;;;;;22.94;54.18;100920.45;126107;1095;102924;-59
2021/07/22 06:58:16;;;;;;;0.40;0.00;;;;;;;22.99;52.74;100919.19;126129;1095;103037;-60
2021/07/22 07:00:43;;;;;;;0.40;0.00;;;;;;;23.06;52.47;100922.34;126069;1096;114202;-60
2021/07/22 07:03:10;;;;;;;0.40;0.00;;;;;;;23.04;52.50;100926.99;126092;1096;102927;-60
2021/07/22 07:05:38;;;;;;;0.40;0.00;;;;;;;23.15;52.51;100916.28;126003;1095;114125;-60
2021/07/22 07:08:06;;;;;;;0.40;0.00;;;;;;;23.27;51.57;100919.09;126148;1096;103023;-59
2021/07/22 07:10:33;;;;;;;0.40;0.00;;;;;;;23.27;51.73;100919.09;126112;1095;113307;-59
2021/07/22 07:13:00;;;;;;;0.40;0.00;;;;;;;23.40;52.17;100919.08;127341;1095;102897;-60
2021/07/22 07:15:28;;;;;;;0.40;0.00;;;;;;;23.46;51.11;100918.62;126177;1095;103083;-60
2021/07/22 07:17:57;;;;;;;0.40;0.00;;;;;;;23.57;51.02;100904.27;126121;1096;114451;-60
2021/07/22 07:20:24;;;;;;;0.40;0.00;;;;;;;23.63;50.02;100911.95;126097;1094;103058;-59
2021/07/22 07:22:53;;;;;;;0.40;0.00;;;;;;;23.69;49.99;100906.08;126039;1095;113276;-60
2021/07/22 07:25:21;;;;;;;0.40;0.00;;;;;;;23.70;49.38;100905.11;126118;1096;102962;-59
2021/07/22 07:27:48;;;;;;;0.40;0.00;;;;;;;23.69;50.73;100908.80;126150;1096;102991;-59
2021/07/22 07:30:19;;;;;;;0.40;0.00;;;;;;;23.70;50.59;100915.98;126028;1095;114326;-60
2021/07/22 07:32:47;;;;;;;0.40;0.00;;;;;;;23.81;50.20;100912.47;126143;1095;102893;-60
2021/07/22 07:35:15;;;;;;;0.40;0.00;;;;;;;23.87;49.72;100914.71;127014;1096;114113;-60
2021/07/22 07:37:42;;;;;;;0.40;0.00;;;;;;;23.93;49.12;100914.30;126107;1095;103326;-59
2021/07/22 07:40:10;;;;;;;0.40;0.00;;;;;;;23.89;48.97;100915.52;126145;1095;102891;-59
2021/07/22 07:42:37;;;;;;;0.40;0.00;;;;;;;23.95;49.57;100917.78;126174;1095;113910;-59
2021/07/22 07:45:06;;;;;;;0.40;0.00;;;;;;;24.01;48.21;100917.31;126167;1095;102910;-59
2021/07/22 07:47:34;;;;;;;0.40;0.00;;;;;;;24.11;48.45;100912.06;126134;1096;114157;-60
2021/07/22 07:50:01;;;;;;;0.40;0.00;;;;;;;24.17;48.02;100918.89;126137;1095;103029;-60
2021/07/22 07:52:31;;;;;;;0.40;0.00;;;;;;;24.25;47.79;100918.31;126066;1095;114506;-59
2021/07/22 07:54:58;;;;;;;0.40;0.00;;;;;;;24.27;48.14;100917.22;125986;1095;102904;-59
2021/07/22 07:57:26;;;;;;;0.40;0.00;;;;;;;24.32;48.03;100916.85;126144;1095;103323;-59
2021/07/22 07:59:53;;;;;;;0.40;0.00;;;;;;;24.41;46.99;100915.30;126036;1096;114352;-59
2021/07/22 08:02:20;;;;;;;0.40;0.00;;;;;;;24.43;47.11;100921.47;126133;1095;105231;-59
2021/07/22 08:04:48;;;;;;;0.40;0.00;;;;;;;24.56;46.89;100919.54;126013;1095;114373;-59
2021/07/22 08:07:16;;;;;;;0.40;0.00;;;;;;;24.71;46.15;100920.23;126118;1096;103345;-59
2021/07/22 08:09:46;;;;;;;0.40;0.00;;;;;;;24.77;45.45;100914.31;126078;1095;102911;-59
2021/07/22 08:12:15;;;;;;;0.40;0.00;;;;;;;24.91;44.26;100915.97;125928;1096;114180;-60
2021/07/22 08:14:44;;;;;;;0.40;0.00;;;;;;;24.98;43.50;100909.04;126181;1095;104836;-60
2021/07/22 08:17:16;;;;;;;0.40;0.00;;;;;;;25.09;45.66;100923.67;125990;1094;114187;-60
2021/07/22 08:19:43;;;;;;;0.40;0.00;;;;;;;25.10;45.09;100912.65;126931;1096;103323;-60
2021/07/22 08:22:11;;;;;;;0.40;0.00;;;;;;;25.25;43.85;100906.97;126065;1096;102913;-60
2021/07/22 08:24:40;;;;;;;0.40;0.00;;;;;;;25.45;44.14;100908.11;126110;1095;114009;-60
2021/07/22 08:27:07;;;;;;;0.40;0.00;;;;;;;25.54;43.78;100910.09;126373;1095;102891;-60
2021/07/22 08:29:39;;;;;;;0.40;0.00;;;;;;;25.73;43.52;100908.58;126112;1095;114546;-60
2021/07/22 08:32:07;;;;;;;0.40;0.00;;;;;;;25.98;44.13;100911.00;126177;1096;103434;-59
2021/07/22 08:34:34;;;;;;;0.40;0.00;;;;;;;26.12;44.23;100918.05;125997;1096;114408;-59
2021/07/22 08:37:11;;;;;;;0.40;0.00;;;;;;;26.15;43.43;100912.35;126089;1096;103042;-59
2021/07/22 08:39:39;;;;;;;0.40;0.00;;;;;;;26.20;42.96;100910.11;126047;1096;103070;-59
2021/07/22 08:42:08;;;;;;;0.40;0.00;;;;;;;26.29;41.66;100902.13;125849;1095;114335;-60
2021/07/22 08:44:36;;;;;;;0.40;0.00;;;;;;;26.36;41.35;100909.67;126373;1096;102891;-60
2021/07/22 08:47:08;;;;;;;0.40;0.00;;;;;;;26.43;40.59;100901.81;126419;1095;114506;-60
2021/07/22 08:49:37;;;;;;;0.40;0.00;;;;;;;26.56;41.04;100904.34;125895;1096;103001;-61
2021/07/22 08:52:09;;;;;;;0.40;0.00;;;;;;;26.69;41.28;100910.48;126135;1095;102893;-61
2021/07/22 08:54:38;;;;;;;0.40;0.00;;;;;;;26.69;39.68;100909.63;125997;1095;114221;-61
2021/07/22 08:57:07;;;;;;;0.40;0.00;;;;;;;26.75;40.16;100903.67;126082;1096;102916;-59
2021/07/22 08:59:34;;;;;;;0.40;0.00;;;;;;;26.80;39.34;100903.25;125978;1096;114320;-59
2021/07/22 09:02:03;;;;;;;0.40;0.00;;;;;;;26.72;39.99;100903.06;126085;1095;103032;-59
2021/07/22 09:04:30;;;;;;;0.40;0.00;;;;;;;26.76;38.59;100904.52;126127;1095;113374;-59
2021/07/22 09:06:58;;;;;;;0.40;0.00;;;;;;;26.83;39.29;100900.24;126120;1096;103037;-59
2021/07/22 09:09:25;;;;;;;0.40;0.00;;;;;;;26.86;38.26;100897.27;126118;1095;103179;-59
2021/07/22 09:12:01;;;;;;;0.40;0.00;;;;;;;26.92;39.12;100902.17;125993;1095;114663;-59
2021/07/22 09:14:30;;;;;;;0.40;0.00;;;;;;;27.08;38.42;100900.83;126103;1095;102894;-59
2021/07/22 09:16:58;;;;;;;0.40;0.00;;;;;;;27.24;39.22;100892.13;126084;1096;113290;-59
2021/07/22 09:19:37;;;;;;;0.40;0.00;;;;;;;27.32;39.66;100898.63;125960;1096;103026;-58
2021/07/22 09:22:10;;;;;;;0.40;0.00;;;;;;;27.48;37.74;100895.41;126071;1095;103046;-59
2021/07/22 09:24:51;;;;;;;0.40;0.00;;;;;;;27.65;37.75;100902.10;126196;1096;114132;-60
2021/07/22 09:27:50;;;;;;;0.40;0.00;;;;;;;27.68;37.86;100901.84;126152;1095;102888;-59
2021/07/22 09:30:19;;;;;;;0.40;0.00;;;;;;;27.85;37.31;100899.42;125828;1096;114327;-59
2021/07/22 09:32:50;;;;;;;0.40;0.00;;;;;;;28.11;36.03;100894.31;126082;1096;102907;-59
2021/07/22 09:35:22;;;;;;;0.40;0.00;;;;;;;28.53;35.86;100895.89;125957;1095;114183;-59
2021/07/22 09:37:56;;;;;;;0.40;0.00;;;;;;;29.36;34.95;100892.55;126315;1096;103019;-59
2021/07/22 09:40:26;;;;;;;0.40;0.00;;;;;;;30.30;32.49;100891.41;125885;1094;113349;-59
2021/07/22 09:42:54;;;;;;;0.40;0.00;;;;;;;31.17;31.96;100888.84;126074;1095;103053;-59
2021/07/22 09:45:30;;;;;;;0.40;0.00;;;;;;;32.34;30.89;100882.72;126547;1095;102910;-59
2021/07/22 09:48:08;;;;;;;0.40;0.00;;;;;;;33.39;29.42;100890.20;126140;1095;114308;-59
2021/07/22 09:50:40;;;;;;;0.40;0.00;;;;;;;33.94;28.22;100880.09;126167;1095;103313;-59
2021/07/22 09:53:10;;;;;;;0.40;0.00;;;;;;;34.09;27.79;100879.30;127153;1095;114170;-59
2021/07/22 09:55:39;;;;;;;0.40;0.00;;;;;;;34.31;26.22;100885.92;126094;1096;102988;-60
2021/07/22 09:58:08;;;;;;;0.40;0.00;;;;;;;34.83;25.88;100887.05;126141;1096;102972;-60
2021/07/22 10:00:40;;;;;;;0.40;0.00;;;;;;;35.16;26.21;100881.13;126035;1095;114182;-59
2021/07/22 10:03:13;;;;;;;0.40;0.00;;;;;;;35.39;25.71;100881.07;126126;1095;103140;-60
2021/07/22 10:05:53;;;;;;;0.40;0.00;;;;;;;35.99;24.92;100876.28;126058;1096;114329;-59
2021/07/22 10:08:23;;;;;;;0.40;0.00;;;;;;;36.15;23.58;100880.70;126072;1096;102892;-64
2021/07/22 10:10:52;;;;;;;0.40;0.00;;;;;;;36.41;23.75;100876.50;126033;1095;114552;-60
2021/07/22 10:13:30;;;;;;;0.40;0.00;;;;;;;36.80;23.36;100882.57;126151;1095;102963;-60
2021/07/22 10:15:58;;;;;;;0.40;0.00;;;;;;;37.37;23.45;100888.97;126124;1096;102884;-59
2021/07/22 10:18:27;;;;;;;0.40;0.00;;;;;;;37.45;20.68;100882.39;125781;1095;114266;-60
2021/07/22 10:20:59;;;;;;;0.40;0.00;;;;;;;37.47;21.23;100871.94;126240;1095;102900;-60
2021/07/22 10:23:26;;;;;;;0.40;0.00;;;;;;;37.85;21.30;100873.38;125989;1096;114321;-59
2021/07/22 10:25:54;;;;;;;0.40;0.00;;;;;;;38.14;20.34;100872.16;126018;1095;103119;-60
2021/07/22 10:28:21;;;;;;;0.40;0.00;;;;;;;38.40;20.58;100873.28;125924;1095;114438;-60
2021/07/22 10:30:49;;;;;;;0.40;0.00;;;;;;;38.40;21.49;100873.28;125971;1096;103041;-60
2021/07/22 10:33:19;;;;;;;0.40;0.00;;;;;;;38.81;21.07;100872.22;126134;1095;102894;-61
2021/07/22 10:35:50;;;;;;;0.40;0.00;;;;;;;38.90;20.30;100864.52;126109;1095;114183;-60
2021/07/22 10:38:21;;;;;;;0.40;0.00;;;;;;;38.24;20.24;100864.30;126161;1095;102881;-60
2021/07/22 10:41:01;;;;;;;0.40;0.00;;;;;;;37.99;21.26;100864.02;125910;1096;114386;-60
2021/07/22 10:43:35;;;;;;;0.40;0.00;;;;;;;38.40;20.96;100865.80;126089;1095;103338;-58
2021/07/22 10:46:03;;;;;;;0.40;0.00;;;;;;;38.76;20.61;100860.88;126108;1095;103022;-59
2021/07/22 10:48:31;;;;;;;0.40;0.00;;;;;;;38.85;20.37;100856.79;126110;1095;114202;-58
2021/07/22 10:51:00;;;;;;;0.40;0.00;;;;;;;39.19;20.49;100863.18;126040;1096;102911;-58
2021/07/22 10:53:41;;;;;;;0.40;0.00;;;;;;;39.57;20.40;100847.59;125827;1096;114176;-59
2021/07/22 10:56:14;;;;;;;0.40;0.00;;;;;;;39.58;20.11;100852.09;126181;1095;102884;-59
2021/07/22 10:58:41;;;;;;;0.40;0.00;;;;;;;39.68;19.26;100854.42;125984;1096;114471;-59
2021/07/22 11:01:08;;;;;;;0.40;0.00;;;;;;;39.50;19.73;100853.20;126065;1096;102915;-59
2021/07/22 11:03:35;;;;;;;0.40;0.00;;;;;;;39.61;19.59;100852.52;126051;1096;103413;-59
2021/07/22 11:06:08;;;;;;;0.40;0.00;;;;;;;38.97;19.46;100835.55;125971;1096;114213;-59
2021/07/22 11:08:37;;;;;;;0.40;0.00;;;;;;;37.88;21.17;100834.88;126141;1095;102882;-58
2021/07/22 11:11:07;;;;;;;0.40;0.00;;;;;;;36.71;22.09;100844.92;126047;1096;114376;-60
2021/07/22 11:13:38;;;;;;;0.40;0.00;;;;;;;35.84;23.10;100844.97;126101;1094;102955;-59